createdAt,value
2022-12-04T00:00:00.701Z,16.75
2022-12-04T00:02:27.362Z,15.38
2022-12-04T00:04:54.093Z,17.80
2022-12-04T00:07:20.706Z,17.15
2022-12-04T00:09:47.358Z,16.88
2022-12-04T00:12:13.891Z,16.63
2022-12-04T00:15:00.730Z,17.17
2022-12-04T00:17:26.989Z,17.35
2022-12-04T00:19:53.814Z,17.35
2022-12-04T00:22:21.140Z,16.80
2022-12-04T00:24:47.811Z,17.83
2022-12-04T00:27:14.617Z,17.33
2022-12-04T00:29:41.296Z,17.35
2022-12-04T00:32:07.911Z,17.10
2022-12-04T00:34:34.586Z,19.20
2022-12-04T00:37:01.141Z,18.92
2022-12-04T00:39:27.735Z,18.23
2022-12-04T00:41:54.818Z,18.83
2022-12-04T00:44:21.404Z,18.35
2022-12-04T00:46:47.945Z,17.70
2022-12-04T00:49:14.531Z,17.48
2022-12-04T00:51:41.115Z,18.25
2022-12-04T00:54:07.690Z,17.80
2022-12-04T00:56:34.263Z,17.92
2022-12-04T00:59:01.700Z,18.10
2022-12-04T01:01:29.759Z,17.88
2022-12-04T01:03:57.061Z,17.67
2022-12-04T01:06:30.168Z,18.98
2022-12-04T01:08:58.064Z,18.02
2022-12-04T01:11:26.627Z,19.73
2022-12-04T01:13:53.816Z,19.73
2022-12-04T01:16:23.860Z,17.60
2022-12-04T01:18:51.139Z,17.33
2022-12-04T01:21:18.874Z,18.73
2022-12-04T01:23:45.740Z,18.30
2022-12-04T01:26:13.006Z,19.58
2022-12-04T01:28:39.980Z,21.23
2022-12-04T01:31:10.325Z,19.42
2022-12-04T01:33:38.258Z,19.15
2022-12-04T01:36:07.836Z,17.83
2022-12-04T01:38:35.482Z,19.88
2022-12-04T01:41:02.377Z,18.30
2022-12-04T01:43:31.014Z,20.15
2022-12-04T01:46:01.265Z,18.48
2022-12-04T01:48:36.460Z,19.85
2022-12-04T01:51:18.627Z,19.95
2022-12-04T01:53:52.290Z,21.13
2022-12-04T01:56:22.593Z,18.92
2022-12-04T01:58:54.055Z,20.27
2022-12-04T02:01:20.935Z,18.85
2022-12-04T02:03:47.557Z,19.83
2022-12-04T02:06:14.149Z,20.45
2022-12-04T02:08:41.056Z,19.92
2022-12-04T02:11:26.336Z,19.05
2022-12-04T02:14:25.493Z,20.45
2022-12-04T02:16:55.042Z,19.30
2022-12-04T02:19:52.396Z,19.83
2022-12-04T02:22:31.275Z,19.48
2022-12-04T02:25:21.135Z,21.15
2022-12-04T02:28:08.944Z,16.70
2022-12-04T02:30:40.399Z,20.00
2022-12-04T02:33:27.503Z,19.85
2022-12-04T02:36:10.484Z,20.20
2022-12-04T02:38:40.617Z,20.23
2022-12-04T02:41:16.730Z,20.73
2022-12-04T02:43:52.354Z,20.25
2022-12-04T02:46:18.933Z,21.48
2022-12-04T02:48:50.760Z,20.80
2022-12-04T02:51:21.246Z,20.15
2022-12-04T02:53:53.132Z,19.38
2022-12-04T02:56:34.626Z,19.75
2022-12-04T02:59:09.846Z,20.90
2022-12-04T03:01:42.989Z,20.35
2022-12-04T03:04:16.651Z,20.33
2022-12-04T03:06:46.125Z,19.08
2022-12-04T03:09:18.117Z,20.65
2022-12-04T03:11:50.282Z,19.90
2022-12-04T03:14:22.266Z,20.33
2022-12-04T03:16:52.265Z,18.48
2022-12-04T03:19:24.444Z,20.13
2022-12-04T03:22:12.953Z,19.58
2022-12-04T03:24:45.659Z,20.48
2022-12-04T03:27:20.407Z,20.17
2022-12-04T03:30:15.873Z,19.08
2022-12-04T03:32:42.425Z,19.45
2022-12-04T03:35:14.941Z,20.30
2022-12-04T03:37:50.296Z,20.83
2022-12-04T03:40:34.164Z,20.52
2022-12-04T03:43:21.042Z,21.10
2022-12-04T03:45:51.663Z,20.98
2022-12-04T03:48:31.687Z,20.90
2022-12-04T03:51:08.495Z,21.40
2022-12-04T03:53:49.125Z,20.55
2022-12-04T03:58:55.728Z,19.60
2022-12-04T04:01:27.626Z,20.25
2022-12-04T04:03:57.846Z,21.58
2022-12-04T04:06:29.653Z,21.90
2022-12-04T04:09:02.320Z,20.05
2022-12-04T04:11:37.665Z,20.52
2022-12-04T04:14:35.714Z,20.63
2022-12-04T04:17:25.258Z,20.25
2022-12-04T04:20:19.949Z,21.52
2022-12-04T04:23:07.847Z,19.13
2022-12-04T04:25:37.796Z,23.80
2022-12-04T04:28:04.428Z,22.40
2022-12-04T04:30:32.734Z,20.73
2022-12-04T04:33:16.186Z,21.45
2022-12-04T04:35:52.061Z,21.75
2022-12-04T04:38:31.723Z,21.80
2022-12-04T04:41:05.407Z,22.55
2022-12-04T04:43:40.657Z,22.27
2022-12-04T04:46:14.117Z,22.85
2022-12-04T04:48:44.920Z,22.50
2022-12-04T04:51:11.875Z,21.73
2022-12-04T04:53:51.539Z,21.52
2022-12-04T04:56:19.060Z,16.10
2022-12-04T04:58:45.812Z,22.00
2022-12-04T05:01:16.056Z,21.00
2022-12-04T05:03:42.759Z,22.98
2022-12-04T05:06:09.499Z,21.48
2022-12-04T05:08:36.838Z,22.33
2022-12-04T05:11:04.081Z,21.30
2022-12-04T05:13:31.069Z,21.45
2022-12-04T05:16:06.144Z,22.15
2022-12-04T05:18:34.827Z,21.40
2022-12-04T05:21:18.702Z,21.98
2022-12-04T05:23:45.324Z,21.13
2022-12-04T05:26:12.045Z,19.70
2022-12-04T05:28:40.809Z,21.25
2022-12-04T05:31:07.474Z,22.90
2022-12-04T05:33:34.061Z,21.98
2022-12-04T05:36:04.122Z,20.67
2022-12-04T05:38:31.246Z,21.95
2022-12-04T05:40:58.947Z,21.40
2022-12-04T05:43:25.887Z,21.88
2022-12-04T05:45:52.520Z,21.63
2022-12-04T05:48:19.103Z,22.02
2022-12-04T05:50:45.738Z,21.52
2022-12-04T05:53:12.487Z,22.90
2022-12-04T05:55:39.059Z,22.98
2022-12-04T05:58:05.626Z,22.38
2022-12-04T06:00:33.297Z,22.45
2022-12-04T06:02:59.981Z,23.10
2022-12-04T06:05:26.649Z,20.05
2022-12-04T06:07:53.302Z,22.08
2022-12-04T06:10:19.890Z,22.20
2022-12-04T06:12:46.494Z,22.15
2022-12-04T06:15:13.070Z,23.05
2022-12-04T06:17:39.700Z,24.27
2022-12-04T06:20:11.421Z,22.70
2022-12-04T06:22:38.426Z,22.00
2022-12-04T06:25:05.332Z,21.98
2022-12-04T06:27:31.878Z,21.05
2022-12-04T06:29:59.143Z,22.25
2022-12-04T06:32:26.221Z,21.98
2022-12-04T06:34:54.400Z,22.35
2022-12-04T06:37:23.120Z,23.48
2022-12-04T06:39:49.665Z,23.55
2022-12-04T06:42:16.550Z,23.00
2022-12-04T06:44:43.112Z,22.70
2022-12-04T06:47:09.847Z,23.05
2022-12-04T06:49:36.504Z,23.35
2022-12-04T06:52:03.468Z,23.50
2022-12-04T06:54:30.049Z,22.77
2022-12-04T06:56:56.748Z,24.95
2022-12-04T06:59:23.809Z,24.33
2022-12-04T07:01:50.675Z,23.63
2022-12-04T07:04:17.425Z,23.73
2022-12-04T07:06:44.008Z,25.15
2022-12-04T07:09:14.270Z,24.23
2022-12-04T07:11:42.300Z,24.05
2022-12-04T07:14:09.609Z,22.98
2022-12-04T07:16:40.780Z,23.60
2022-12-04T07:19:13.016Z,24.42
2022-12-04T07:21:39.682Z,24.95
2022-12-04T07:24:06.485Z,23.30
2022-12-04T07:26:33.141Z,24.23
2022-12-04T07:28:59.894Z,25.30
2022-12-04T07:31:28.116Z,26.10
2022-12-04T07:33:55.486Z,22.65
2022-12-04T07:36:23.020Z,23.48
2022-12-04T07:38:50.456Z,25.05
2022-12-04T07:41:18.094Z,23.23
2022-12-04T07:43:45.291Z,22.77
2022-12-04T07:46:21.034Z,24.20
2022-12-04T07:48:47.745Z,24.45
2022-12-04T07:51:20.312Z,24.20
2022-12-04T07:53:47.129Z,24.92
2022-12-04T07:56:14.157Z,23.48
2022-12-04T07:58:41.546Z,23.90
2022-12-04T08:01:12.872Z,24.38
2022-12-04T08:03:46.774Z,24.27
2022-12-04T08:06:15.592Z,23.77
2022-12-04T08:08:42.146Z,25.48
2022-12-04T08:11:11.447Z,23.67
2022-12-04T08:13:38.047Z,25.00
2022-12-04T08:16:06.378Z,24.85
2022-12-04T08:18:33.502Z,24.27
2022-12-04T08:21:08.615Z,24.15
2022-12-04T08:23:36.097Z,23.83
2022-12-04T08:26:04.104Z,23.50
2022-12-04T08:28:31.606Z,24.90
2022-12-04T08:31:07.054Z,24.92
2022-12-04T08:33:34.647Z,24.73
2022-12-04T08:36:01.514Z,24.02
2022-12-04T08:38:28.079Z,24.92
2022-12-04T08:40:54.626Z,23.55
2022-12-04T08:43:21.231Z,25.35
2022-12-04T08:45:58.940Z,26.23
2022-12-04T08:48:26.197Z,24.95
2022-12-04T08:50:53.086Z,24.30
2022-12-04T08:53:20.114Z,25.48
2022-12-04T08:55:46.830Z,24.50
2022-12-04T08:58:14.032Z,24.45
2022-12-04T09:00:40.893Z,23.15
2022-12-04T09:03:07.541Z,23.73
2022-12-04T09:05:34.158Z,22.85
2022-12-04T09:08:00.869Z,25.45
2022-12-04T09:10:27.661Z,24.40
2022-12-04T09:12:54.396Z,23.65
2022-12-04T09:15:21.066Z,24.33
2022-12-04T09:17:47.665Z,23.40
2022-12-04T09:20:15.017Z,24.75
2022-12-04T09:23:02.993Z,23.67
2022-12-04T09:25:28.443Z,24.08
2022-12-04T09:27:54.999Z,21.60
2022-12-04T09:30:21.569Z,23.40
2022-12-04T09:32:48.132Z,22.60
2022-12-04T09:35:14.789Z,23.02
2022-12-04T09:37:41.350Z,24.48
2022-12-04T09:40:09.066Z,22.80
2022-12-04T09:43:08.080Z,22.55
2022-12-04T09:45:44.183Z,23.30
2022-12-04T09:48:12.526Z,22.50
2022-12-04T09:50:44.643Z,23.48
2022-12-04T09:53:19.451Z,22.27
2022-12-04T09:55:56.112Z,22.17
2022-12-04T09:58:32.643Z,23.10
2022-12-04T10:01:03.225Z,23.00
2022-12-04T10:06:11.704Z,22.23
2022-12-04T10:08:51.228Z,21.33
2022-12-04T10:11:39.904Z,22.60
2022-12-04T10:14:15.407Z,22.33
2022-12-04T10:16:52.507Z,23.42
2022-12-04T10:19:48.389Z,20.65
2022-12-04T10:22:46.510Z,22.00
2022-12-04T10:25:19.863Z,23.02
2022-12-04T10:28:31.411Z,22.52
2022-12-04T10:31:02.427Z,22.80
2022-12-04T10:33:53.565Z,22.48
2022-12-04T10:36:25.406Z,22.45
2022-12-04T10:39:10.135Z,22.85
2022-12-04T10:41:55.061Z,23.10
2022-12-04T10:44:21.883Z,24.67
2022-12-04T10:46:50.874Z,23.52
2022-12-04T10:49:21.226Z,24.95
2022-12-04T10:51:48.234Z,23.45
2022-12-04T10:54:26.910Z,22.80
2022-12-04T10:57:12.289Z,25.40
2022-12-04T10:59:52.412Z,24.98
2022-12-04T11:02:24.309Z,24.17
2022-12-04T11:04:58.215Z,25.73
2022-12-04T11:07:31.203Z,24.65
2022-12-04T11:09:59.412Z,25.88
2022-12-04T11:12:26.133Z,23.33
2022-12-04T11:15:14.086Z,24.48
2022-12-04T11:17:40.967Z,24.88
2022-12-04T11:20:16.382Z,24.67
2022-12-04T11:22:53.823Z,24.17
2022-12-04T11:25:22.630Z,21.73
2022-12-04T11:27:53.056Z,20.95
2022-12-04T11:30:26.211Z,21.77
2022-12-04T11:32:54.267Z,22.23
2022-12-04T11:35:24.700Z,21.50
2022-12-04T11:38:07.535Z,20.38
2022-12-04T11:40:34.607Z,19.95
2022-12-04T11:43:03.467Z,19.67
2022-12-04T11:45:30.130Z,21.48
2022-12-04T11:48:03.254Z,21.15
2022-12-04T11:51:07.517Z,20.65
2022-12-04T11:54:11.150Z,20.20
2022-12-04T11:56:50.072Z,20.45
2022-12-04T11:59:30.842Z,21.00
2022-12-04T12:04:41.857Z,19.75
2022-12-04T12:07:42.855Z,20.23
2022-12-04T12:10:18.795Z,20.88
2022-12-04T12:13:27.269Z,20.08
2022-12-04T12:16:21.737Z,21.42
2022-12-04T12:19:00.441Z,19.92
2022-12-04T12:21:36.450Z,20.98
2022-12-04T12:24:21.794Z,20.65
2022-12-04T12:27:02.427Z,20.80
2022-12-04T12:30:07.031Z,20.60
2022-12-04T12:32:58.256Z,19.40
2022-12-04T12:35:34.297Z,20.27
2022-12-04T12:38:21.970Z,21.52
2022-12-04T12:40:58.426Z,21.08
2022-12-04T12:43:31.577Z,21.02
2022-12-04T12:46:33.657Z,19.92
2022-12-04T12:49:13.800Z,21.60
2022-12-04T12:52:05.090Z,22.88
2022-12-04T12:54:41.417Z,20.48
2022-12-04T12:57:21.848Z,22.35
2022-12-04T12:59:54.496Z,20.95
2022-12-04T13:02:21.372Z,19.75
2022-12-04T13:04:55.319Z,22.02
2022-12-04T13:07:29.793Z,21.60
2022-12-04T13:10:13.445Z,22.13
2022-12-04T13:13:01.165Z,19.88
2022-12-04T13:15:39.075Z,20.77
2022-12-04T13:18:09.431Z,20.90
2022-12-04T13:20:51.495Z,20.17
2022-12-04T13:23:24.088Z,18.95
2022-12-04T13:26:25.638Z,20.77
2022-12-04T13:29:08.832Z,19.02
2022-12-04T13:31:46.069Z,18.85
2022-12-04T13:34:33.467Z,21.35
2022-12-04T13:37:17.748Z,20.10
2022-12-04T13:39:50.440Z,20.55
2022-12-04T13:42:24.970Z,20.48
2022-12-04T13:44:57.598Z,20.90
2022-12-04T13:47:33.505Z,21.20
2022-12-04T13:50:19.391Z,20.25
2022-12-04T13:52:49.110Z,20.75
2022-12-04T13:55:55.076Z,21.88
2022-12-04T13:58:21.647Z,19.88
2022-12-04T14:00:48.373Z,19.92
2022-12-04T14:03:25.277Z,22.15
2022-12-04T14:05:52.463Z,21.23
2022-12-04T14:08:19.047Z,20.98
2022-12-04T14:11:04.338Z,21.25
2022-12-04T14:13:45.570Z,21.40
2022-12-04T14:16:21.807Z,23.40
2022-12-04T14:18:56.157Z,21.55
2022-12-04T14:21:23.349Z,22.92
2022-12-04T14:23:52.004Z,22.92
2022-12-04T14:26:48.984Z,22.10
2022-12-04T14:29:41.777Z,22.98
2022-12-04T14:32:15.454Z,23.40
2022-12-04T14:34:42.740Z,22.80
2022-12-04T14:37:21.045Z,22.48
2022-12-04T14:39:49.554Z,21.75
2022-12-04T14:42:26.512Z,21.30
2022-12-04T14:44:56.500Z,23.85
2022-12-04T14:47:38.287Z,22.13
2022-12-04T14:50:32.290Z,23.38
2022-12-04T14:53:57.260Z,22.25
2022-12-04T14:57:05.458Z,23.02
2022-12-04T14:59:43.817Z,23.58
2022-12-04T15:02:18.635Z,24.00
2022-12-04T15:04:47.271Z,23.15
2022-12-04T15:07:22.766Z,25.08
2022-12-04T15:10:19.574Z,24.10
2022-12-04T15:12:53.561Z,23.58
2022-12-04T15:15:26.932Z,24.50
2022-12-04T15:17:57.867Z,25.27
2022-12-04T15:20:25.165Z,24.40
2022-12-04T15:22:53.991Z,23.55
2022-12-04T15:25:24.352Z,24.30
2022-12-04T15:27:53.677Z,24.55
2022-12-04T15:30:24.545Z,25.52
2022-12-04T15:32:53.404Z,26.20
2022-12-04T15:35:29.011Z,25.20
2022-12-04T15:37:56.091Z,24.52
2022-12-04T15:40:26.361Z,24.95
2022-12-04T15:42:53.421Z,24.85
2022-12-04T15:45:25.797Z,24.35
2022-12-04T15:47:54.157Z,25.20
2022-12-04T15:50:30.835Z,25.90
2022-12-04T15:53:02.078Z,24.73
2022-12-04T15:55:32.397Z,24.42
2022-12-04T15:58:06.054Z,23.73
2022-12-04T16:00:38.013Z,23.10
2022-12-04T16:03:26.823Z,24.98
2022-12-04T16:06:13.302Z,24.80
2022-12-04T16:08:41.899Z,24.45
2022-12-04T16:11:20.449Z,24.30
2022-12-04T16:14:05.568Z,24.02
2022-12-04T16:16:32.214Z,24.98
2022-12-04T16:18:58.990Z,23.83
2022-12-04T16:21:31.252Z,24.75
2022-12-04T16:24:04.890Z,23.35
2022-12-04T16:26:31.910Z,23.48
2022-12-04T16:28:59.210Z,23.27
2022-12-04T16:31:26.348Z,23.67
2022-12-04T16:33:53.042Z,23.48
2022-12-04T16:36:19.635Z,21.48
2022-12-04T16:38:46.395Z,23.17
2022-12-04T16:41:21.813Z,23.25
2022-12-04T16:43:57.541Z,21.67
2022-12-04T16:46:27.879Z,23.42
2022-12-04T16:48:54.827Z,21.75
2022-12-04T16:51:27.030Z,23.27
2022-12-04T16:53:54.646Z,23.90
2022-12-04T16:56:21.970Z,21.83
2022-12-04T16:58:49.092Z,21.38
2022-12-04T17:01:25.365Z,20.90
2022-12-04T17:03:52.507Z,22.20
2022-12-04T17:06:19.267Z,23.52
2022-12-04T17:08:46.124Z,21.98
2022-12-04T17:11:14.299Z,22.23
2022-12-04T17:13:41.872Z,21.33
2022-12-04T17:16:09.177Z,22.23
2022-12-04T17:18:36.278Z,22.75
2022-12-04T17:21:11.702Z,23.08
2022-12-04T17:23:39.081Z,22.30
2022-12-04T17:26:08.378Z,23.48
2022-12-04T17:28:36.413Z,22.25
2022-12-04T17:31:04.693Z,22.40
2022-12-04T17:33:32.269Z,23.92
2022-12-04T17:36:00.271Z,21.55
2022-12-04T17:38:27.907Z,21.02
2022-12-04T17:41:02.074Z,22.42
2022-12-04T17:43:29.891Z,23.20
2022-12-04T17:45:57.424Z,23.25
2022-12-04T17:48:24.501Z,21.95
2022-12-04T17:51:02.567Z,22.05
2022-12-04T17:53:29.173Z,21.20
2022-12-04T17:55:55.718Z,21.25
2022-12-04T17:58:22.304Z,21.13
2022-12-04T18:00:48.898Z,24.00
2022-12-04T18:03:15.583Z,22.52
2022-12-04T18:05:42.167Z,22.60
2022-12-04T18:08:08.795Z,23.25
2022-12-04T18:10:35.516Z,22.23
2022-12-04T18:13:02.075Z,20.42
2022-12-04T18:15:28.614Z,21.80
2022-12-04T18:17:55.390Z,21.63
2022-12-04T18:20:21.947Z,22.00
2022-12-04T18:22:48.510Z,23.27
2022-12-04T18:25:15.101Z,22.23
2022-12-04T18:27:42.117Z,23.35
2022-12-04T18:30:09.835Z,22.42
2022-12-04T18:32:36.406Z,22.10
2022-12-04T18:35:03.034Z,24.17
2022-12-04T18:37:29.591Z,21.83
2022-12-04T18:39:56.551Z,22.83
2022-12-04T18:42:24.188Z,22.58
2022-12-04T18:44:50.721Z,22.88
2022-12-04T18:47:17.314Z,24.58
2022-12-04T18:49:43.884Z,23.42
2022-12-04T18:52:10.432Z,23.20
2022-12-04T18:54:36.967Z,23.05
2022-12-04T18:57:03.658Z,22.58
2022-12-04T18:59:30.191Z,22.52
2022-12-04T19:01:56.807Z,23.80
2022-12-04T19:04:25.084Z,22.98
2022-12-04T19:06:54.325Z,23.83
2022-12-04T19:09:40.819Z,21.52
2022-12-04T19:12:11.085Z,20.48
2022-12-04T19:14:38.605Z,21.13
2022-12-04T19:17:05.571Z,20.00
2022-12-04T19:19:32.189Z,19.20
2022-12-04T19:21:59.170Z,18.52
2022-12-04T19:24:25.730Z,18.38
2022-12-04T19:26:54.288Z,19.92
2022-12-04T19:29:20.879Z,20.10
2022-12-04T19:31:47.552Z,19.60
2022-12-04T19:34:14.292Z,20.10
2022-12-04T19:36:41.681Z,18.33
2022-12-04T19:39:08.260Z,19.60
2022-12-04T19:41:37.022Z,18.77
2022-12-04T19:44:25.974Z,18.80
2022-12-04T19:46:51.216Z,18.83
2022-12-04T19:49:17.715Z,17.92
2022-12-04T19:51:44.437Z,19.65
2022-12-04T19:54:12.725Z,18.15
2022-12-04T19:56:39.270Z,17.10
2022-12-04T19:59:07.622Z,18.33
2022-12-04T20:01:35.469Z,18.85
2022-12-04T20:04:05.346Z,17.80
2022-12-04T20:06:37.137Z,17.85
2022-12-04T20:09:06.845Z,15.77
2022-12-04T20:11:33.622Z,15.37
2022-12-04T20:14:01.475Z,16.27
2022-12-04T20:16:31.043Z,14.82
2022-12-04T20:18:58.168Z,14.63
2022-12-04T20:21:28.386Z,14.85
2022-12-04T20:23:55.085Z,14.98
2022-12-04T20:26:24.363Z,14.25
2022-12-04T20:28:52.193Z,14.20
2022-12-04T20:31:23.388Z,14.75
2022-12-04T20:33:52.712Z,15.95
2022-12-04T20:36:21.816Z,15.63
2022-12-04T20:38:49.714Z,15.18
2022-12-04T20:41:16.639Z,16.98
2022-12-04T20:43:43.847Z,15.60
2022-12-04T20:46:15.606Z,15.18
2022-12-04T20:48:48.142Z,15.90
2022-12-04T20:51:18.845Z,16.55
2022-12-04T20:56:13.553Z,16.73
2022-12-04T20:58:40.471Z,16.33
2022-12-04T21:01:13.111Z,16.25
2022-12-04T21:03:40.026Z,17.15
2022-12-04T21:06:14.315Z,17.40
2022-12-04T21:08:53.942Z,17.52
2022-12-04T21:11:21.774Z,16.70
2022-12-04T21:14:06.952Z,16.65
2022-12-04T21:16:33.799Z,18.50
2022-12-04T21:19:00.789Z,16.00
2022-12-04T21:21:27.656Z,17.50
2022-12-04T21:23:54.238Z,17.30
2022-12-04T21:26:20.897Z,17.00
2022-12-04T21:28:47.716Z,17.23
2022-12-04T21:31:14.577Z,17.08
2022-12-04T21:33:41.206Z,17.08
2022-12-04T21:36:09.238Z,16.27
2022-12-04T21:38:37.112Z,15.52
2022-12-04T21:41:05.699Z,16.40
2022-12-04T21:43:33.389Z,16.75
2022-12-04T21:46:09.455Z,16.70
2022-12-04T21:48:37.069Z,15.82
2022-12-04T21:51:16.853Z,15.73
2022-12-04T21:53:54.841Z,16.08
2022-12-04T21:56:22.687Z,16.85
2022-12-04T21:58:49.583Z,17.77
2022-12-04T22:01:17.839Z,17.42
2022-12-04T22:03:44.471Z,17.45
2022-12-04T22:06:11.318Z,17.23
2022-12-04T22:08:41.743Z,18.25
2022-12-04T22:11:10.537Z,17.60
2022-12-04T22:13:37.523Z,18.08
2022-12-04T22:16:07.328Z,19.25
2022-12-04T22:18:34.760Z,17.15
2022-12-04T22:21:05.082Z,17.33
2022-12-04T22:23:31.627Z,17.45
2022-12-04T22:26:05.323Z,17.60
2022-12-04T22:28:31.946Z,16.08
2022-12-04T22:31:07.391Z,16.55
2022-12-04T22:33:34.117Z,18.70
2022-12-04T22:36:09.752Z,15.43
2022-12-04T22:38:52.686Z,14.93
2022-12-04T22:41:25.213Z,15.45
2022-12-04T22:43:51.881Z,14.52
2022-12-04T22:46:18.957Z,13.82
2022-12-04T22:48:46.216Z,12.32
2022-12-04T22:51:16.203Z,8.32
2022-12-04T22:53:45.740Z,7.88
2022-12-04T22:56:15.400Z,7.32
2022-12-04T22:58:44.079Z,7.47
2022-12-04T23:01:22.794Z,7.55
2022-12-04T23:03:49.957Z,6.95
2022-12-04T23:06:18.404Z,7.78
2022-12-04T23:08:45.638Z,6.95
2022-12-04T23:11:18.341Z,7.05
2022-12-04T23:13:53.390Z,7.05
2022-12-04T23:16:21.878Z,7.05
2022-12-04T23:18:48.927Z,6.43
2022-12-04T23:21:16.555Z,6.72
2022-12-04T23:23:45.458Z,7.38
2022-12-04T23:26:14.767Z,7.00
2022-12-04T23:28:41.908Z,7.03
2022-12-04T23:31:08.956Z,6.72
2022-12-04T23:33:35.649Z,6.93
2022-12-04T23:36:03.319Z,6.82
2022-12-04T23:38:30.611Z,7.13
2022-12-04T23:41:11.262Z,7.03
2022-12-04T23:43:38.355Z,6.78
2022-12-04T23:46:11.022Z,6.90
2022-12-04T23:48:39.222Z,6.95
2022-12-04T23:51:06.187Z,6.80
2022-12-04T23:53:32.913Z,6.65
2022-12-04T23:56:00.952Z,6.40
2022-12-04T23:58:27.554Z,7.00
